Time,TemperatureF,DewpointF,PressureIn,WindDirection,WindDirectionDegrees,WindSpeedMPH,WindSpeedGustMPH,Humidity,HourlyPrecipIn,Conditions,Clouds,dailyrainin,SoftwareType,DateUTC
2013-04-13 14:00:00,31.0,11.0,-100.00,SW,222,31.0,66.0,43,-99.99,,,-99.99,,2013-04-13 20:00:00,
2013-04-13 14:42:00,31.0,11.0,-100.00,SW,222,31.0,66.0,43,-99.99,,,-99.99,,2013-04-13 20:42:00,
2013-04-13 14:52:00,31.0,11.0,-100.00,SW,222,31.0,66.0,43,-99.99,,,-99.99,,2013-04-13 20:52:00,
2013-04-13 15:00:00,31.0,13.0,-100.00,SW,221,29.0,57.0,47,-99.99,,,-99.99,,2013-04-13 21:00:00,
2013-04-13 15:43:00,31.0,13.0,-100.00,SW,221,29.0,57.0,47,-99.99,,,-99.99,,2013-04-13 21:43:00,
2013-04-13 15:53:00,31.0,13.0,-100.00,SW,221,29.0,57.0,47,-99.99,,,-99.99,,2013-04-13 21:53:00,
2013-04-13 16:00:00,33.0,12.0,-100.00,SW,223,30.0,55.0,42,-99.99,,,-99.99,,2013-04-13 22:00:00,
2013-04-13 16:42:00,33.0,12.0,-100.00,SW,223,30.0,55.0,42,-99.99,,,-99.99,,2013-04-13 22:42:00,
2013-04-13 16:53:00,33.0,12.0,-100.00,SW,223,30.0,55.0,42,-99.99,,,-99.99,,2013-04-13 22:53:00,
2013-04-13 17:00:00,33.0,8.0,-100.00,SW,219,32.0,58.0,35,-99.99,,,-99.99,,2013-04-13 23:00:00,
2013-04-13 17:43:00,33.0,8.0,-100.00,SW,219,32.0,58.0,35,-99.99,,,-99.99,,2013-04-13 23:43:00,
2013-04-13 17:53:00,33.0,8.0,-100.00,SW,219,32.0,58.0,35,-99.99,,,-99.99,,2013-04-13 23:53:00,
2013-04-13 18:00:00,33.0,8.0,-100.00,SW,216,35.0,63.0,34,-99.99,,,-99.99,,2013-04-14 00:00:00,
2013-04-13 18:42:00,33.0,8.0,-100.00,SW,216,35.0,63.0,34,-99.99,,,-99.99,,2013-04-14 00:42:00,
2013-04-13 18:52:00,33.0,8.0,-100.00,SW,216,35.0,63.0,34,-99.99,,,-99.99,,2013-04-14 00:52:00,
2013-04-13 19:00:00,32.0,9.0,-100.00,SW,222,29.0,50.0,39,-99.99,,,-99.99,,2013-04-14 01:00:00,
2013-04-13 19:42:00,32.0,9.0,-100.00,SW,222,29.0,50.0,39,-99.99,,,-99.99,,2013-04-14 01:42:00,
2013-04-13 19:53:00,32.0,9.0,-100.00,SW,222,29.0,50.0,39,-99.99,,,-99.99,,2013-04-14 01:53:00,
2013-04-13 20:00:00,31.0,10.0,-100.00,SW,229,25.0,57.0,41,-99.99,,,-99.99,,2013-04-14 02:00:00,
2013-04-13 20:43:00,31.0,10.0,-100.00,SW,229,25.0,57.0,41,-99.99,,,-99.99,,2013-04-14 02:43:00,
2013-04-13 20:53:00,31.0,10.0,-100.00,SW,229,25.0,57.0,41,-99.99,,,-99.99,,2013-04-14 02:53:00,
2013-04-13 21:00:00,31.0,10.0,-100.00,SW,225,36.0,68.0,40,-99.99,,,-99.99,,2013-04-14 03:00:00,
2013-04-13 21:43:00,31.0,10.0,-100.00,SW,225,36.0,68.0,40,-99.99,,,-99.99,,2013-04-14 03:43:00,
2013-04-13 21:53:00,31.0,10.0,-100.00,SW,225,36.0,68.0,40,-99.99,,,-99.99,,2013-04-14 03:53:00,
2013-04-13 22:00:00,31.0,13.0,-100.00,SW,232,28.0,68.0,46,-99.99,,,-99.99,,2013-04-14 04:00:00,
2013-04-13 22:43:00,31.0,13.0,-100.00,SW,232,28.0,68.0,46,-99.99,,,-99.99,,2013-04-14 04:43:00,
2013-04-13 22:52:00,31.0,13.0,-100.00,SW,232,28.0,68.0,46,-99.99,,,-99.99,,2013-04-14 04:52:00,
2013-04-13 23:00:00,30.0,18.0,-100.00,SW,225,28.0,62.0,61,-99.99,,,-99.99,,2013-04-14 05:00:00,
2013-04-13 23:42:00,30.0,18.0,-100.00,SW,225,28.0,62.0,61,-99.99,,,-99.99,,2013-04-14 05:42:00,
2013-04-13 23:52:00,30.0,18.0,-100.00,SW,225,28.0,62.0,61,-99.99,,,-99.99,,2013-04-14 05:52:00,